createdAt,value
2018-08-25T00:01:08.763Z,8.57
2018-08-25T00:03:37.006Z,7.63
2018-08-25T00:06:05.584Z,7.70
2018-08-25T00:08:33.782Z,8.03
2018-08-25T00:11:02.103Z,7.93
2018-08-25T00:13:30.770Z,7.53
2018-08-25T00:16:00.591Z,7.90
2018-08-25T00:18:29.044Z,8.40
2018-08-25T00:20:59.087Z,8.63
2018-08-25T00:23:27.623Z,7.90
2018-08-25T00:25:57.797Z,8.00
2018-08-25T00:28:26.351Z,7.93
2018-08-25T00:31:00.394Z,7.70
2018-08-25T00:33:29.182Z,7.30
2018-08-25T00:35:59.306Z,7.90
2018-08-25T00:38:27.976Z,8.33
2018-08-25T00:40:56.395Z,8.20
2018-08-25T00:43:24.732Z,8.67
2018-08-25T00:45:53.023Z,8.30
2018-08-25T00:48:21.500Z,8.37
2018-08-25T00:50:50.297Z,8.20
2018-08-25T00:53:18.582Z,8.07
2018-08-25T00:55:47.367Z,8.10
2018-08-25T00:58:15.608Z,8.40
2018-08-25T01:00:44.038Z,8.30
2018-08-25T01:03:12.598Z,8.60
2018-08-25T01:05:41.246Z,8.40
2018-08-25T01:08:09.695Z,8.57
2018-08-25T01:10:38.694Z,8.90
2018-08-25T01:13:07.862Z,8.50
2018-08-25T01:15:36.128Z,8.80
2018-08-25T01:18:04.629Z,8.80
2018-08-25T01:20:33.226Z,8.60
2018-08-25T01:23:01.653Z,9.20
2018-08-25T01:25:30.111Z,8.20
2018-08-25T01:27:58.522Z,8.93
2018-08-25T01:30:27.393Z,8.50
2018-08-25T01:32:55.981Z,9.13
2018-08-25T01:35:24.732Z,8.93
2018-08-25T01:37:53.059Z,8.90
2018-08-25T01:40:21.370Z,8.73
2018-08-25T01:42:49.970Z,8.93
2018-08-25T01:45:18.399Z,8.43
2018-08-25T01:47:46.835Z,8.77
2018-08-25T01:50:15.265Z,9.43
2018-08-25T01:52:44.066Z,9.00
2018-08-25T01:55:12.847Z,9.83
2018-08-25T01:57:41.265Z,9.03
2018-08-25T02:00:10.085Z,10.17
2018-08-25T02:02:38.416Z,9.50
2018-08-25T02:05:06.885Z,9.80
2018-08-25T02:07:35.371Z,10.03
2018-08-25T02:10:04.260Z,9.33
2018-08-25T02:12:32.823Z,9.40
2018-08-25T02:15:01.520Z,9.70
2018-08-25T02:17:29.794Z,9.83
2018-08-25T02:19:58.011Z,9.87
2018-08-25T02:22:26.564Z,10.07
2018-08-25T02:24:55.094Z,9.93
2018-08-25T02:27:23.824Z,10.07
2018-08-25T02:29:52.657Z,10.13
2018-08-25T02:32:21.279Z,10.00
2018-08-25T02:34:49.759Z,9.50
2018-08-25T02:37:18.467Z,9.43
2018-08-25T02:39:47.307Z,9.50
2018-08-25T02:42:16.158Z,9.77
2018-08-25T02:44:44.830Z,9.70
2018-08-25T02:47:13.560Z,9.43
2018-08-25T02:49:42.329Z,10.47
2018-08-25T02:52:11.008Z,9.47
2018-08-25T02:54:39.809Z,10.00
2018-08-25T02:57:08.155Z,10.27
2018-08-25T02:59:36.774Z,10.37
2018-08-25T03:02:05.660Z,10.07
2018-08-25T03:04:34.207Z,10.53
2018-08-25T03:07:02.608Z,10.17
2018-08-25T03:09:31.025Z,10.27
2018-08-25T03:11:59.480Z,10.57
2018-08-25T03:14:28.385Z,10.77
2018-08-25T03:16:56.651Z,10.13
2018-08-25T03:19:24.989Z,10.23
2018-08-25T03:21:53.643Z,10.70
2018-08-25T03:24:22.223Z,10.90
2018-08-25T03:26:50.909Z,11.37
2018-08-25T03:29:19.111Z,11.30
2018-08-25T03:31:47.523Z,10.83
2018-08-25T03:34:16.250Z,11.00
2018-08-25T03:36:44.700Z,10.77
2018-08-25T03:39:13.095Z,11.63
2018-08-25T03:41:41.339Z,11.17
2018-08-25T03:44:13.721Z,10.57
2018-08-25T03:46:42.456Z,11.33
2018-08-25T03:49:11.075Z,10.90
2018-08-25T03:51:39.315Z,10.63
2018-08-25T03:54:08.104Z,10.60
2018-08-25T03:56:36.701Z,10.90
2018-08-25T03:59:05.068Z,11.03
2018-08-25T04:01:33.493Z,10.40
2018-08-25T04:04:02.151Z,10.53
2018-08-25T04:06:30.883Z,10.10
2018-08-25T04:08:59.280Z,10.67
2018-08-25T04:11:32.729Z,10.27
2018-08-25T04:14:01.444Z,10.63
2018-08-25T04:16:30.084Z,11.10
2018-08-25T04:18:58.643Z,11.40
2018-08-25T04:21:27.266Z,11.40
2018-08-25T04:23:55.891Z,10.50
2018-08-25T04:26:24.657Z,10.80
2018-08-25T04:28:53.367Z,10.33
2018-08-25T04:31:21.803Z,11.50
2018-08-25T04:33:50.607Z,10.93
2018-08-25T04:36:18.926Z,10.70
2018-08-25T04:38:47.678Z,11.50
2018-08-25T04:41:15.965Z,10.43
2018-08-25T04:43:44.243Z,10.67
2018-08-25T04:46:12.635Z,11.10
2018-08-25T04:48:41.030Z,10.37
2018-08-25T04:51:09.470Z,10.77
2018-08-25T04:53:38.598Z,10.40
2018-08-25T04:56:06.919Z,10.17
2018-08-25T04:58:35.378Z,10.10
2018-08-25T05:01:04.071Z,10.10
2018-08-25T05:03:32.451Z,10.10
2018-08-25T05:06:01.478Z,10.60
2018-08-25T05:08:30.187Z,10.27
2018-08-25T05:10:59.941Z,10.17
2018-08-25T05:13:28.448Z,9.63
2018-08-25T05:15:57.113Z,10.27
2018-08-25T05:18:25.544Z,10.27
2018-08-25T05:20:53.886Z,10.30
2018-08-25T05:23:22.362Z,9.70
2018-08-25T05:25:50.842Z,10.23
2018-08-25T05:28:19.399Z,9.40
2018-08-25T05:30:48.179Z,10.20
2018-08-25T05:33:16.518Z,9.67
2018-08-25T05:35:44.931Z,10.03
2018-08-25T05:38:13.157Z,10.30
2018-08-25T05:40:41.626Z,10.20
2018-08-25T05:43:10.188Z,9.93
2018-08-25T05:45:38.563Z,10.17
2018-08-25T05:48:07.195Z,10.73
2018-08-25T05:50:35.747Z,10.30
2018-08-25T05:53:04.178Z,9.97
2018-08-25T05:55:32.974Z,9.97
2018-08-25T05:58:01.652Z,10.70
2018-08-25T06:00:39.159Z,11.53
2018-08-25T06:03:07.504Z,10.00
2018-08-25T06:05:36.468Z,10.63
2018-08-25T06:08:04.878Z,10.90
2018-08-25T06:10:33.405Z,11.03
2018-08-25T06:13:01.765Z,10.87
2018-08-25T06:15:30.224Z,11.37
2018-08-25T06:17:58.560Z,13.40
2018-08-25T06:20:27.094Z,12.60
2018-08-25T06:22:55.672Z,13.13
2018-08-25T06:25:24.132Z,13.00
2018-08-25T06:27:52.742Z,14.13
2018-08-25T06:30:21.386Z,13.73
2018-08-25T06:32:49.767Z,14.40
2018-08-25T06:35:18.112Z,13.93
2018-08-25T06:37:46.666Z,13.73
2018-08-25T06:40:15.143Z,13.43
2018-08-25T06:42:43.532Z,14.43
2018-08-25T06:45:12.220Z,15.30
2018-08-25T06:47:40.530Z,14.40
2018-08-25T06:50:08.854Z,13.73
2018-08-25T06:52:37.215Z,13.30
2018-08-25T06:55:06.086Z,13.37
2018-08-25T06:57:35.896Z,12.73
2018-08-25T07:00:04.803Z,17.83
2018-08-25T07:02:33.449Z,63.77
2018-08-25T07:05:01.897Z,70.20
2018-08-25T07:07:30.275Z,66.03
2018-08-25T07:09:58.911Z,50.47
2018-08-25T07:12:27.543Z,39.00
2018-08-25T07:15:09.607Z,31.70
2018-08-25T07:17:37.930Z,29.80
2018-08-25T07:20:06.338Z,32.23
2018-08-25T07:22:34.634Z,53.87
2018-08-25T07:25:03.518Z,54.70
2018-08-25T07:27:32.318Z,51.53
2018-08-25T07:30:01.054Z,45.93
2018-08-25T07:32:29.551Z,40.23
2018-08-25T07:34:57.879Z,38.03
2018-08-25T07:37:26.149Z,32.80
2018-08-25T07:39:54.422Z,30.20
2018-08-25T07:42:22.834Z,27.93
2018-08-25T07:44:51.239Z,24.33
2018-08-25T07:47:19.564Z,28.97
2018-08-25T07:49:47.989Z,27.37
2018-08-25T07:52:16.254Z,33.13
2018-08-25T07:54:44.907Z,35.60
2018-08-25T07:57:13.813Z,35.53
2018-08-25T07:59:42.280Z,33.07
2018-08-25T08:02:11.063Z,29.77
2018-08-25T08:04:39.450Z,23.97
2018-08-25T08:07:07.896Z,22.07
2018-08-25T08:09:36.313Z,50.73
2018-08-25T08:12:05.156Z,67.30
2018-08-25T08:14:58.329Z,54.37
2018-08-25T08:17:26.802Z,29.80
2018-08-25T08:19:55.557Z,32.63
2018-08-25T08:22:24.232Z,24.93
2018-08-25T08:24:52.740Z,21.40
2018-08-25T08:27:21.163Z,16.20
2018-08-25T08:29:49.554Z,13.37
2018-08-25T08:32:17.900Z,12.00
2018-08-25T08:34:46.654Z,11.20
2018-08-25T08:37:15.088Z,10.73
2018-08-25T08:39:43.715Z,9.97
2018-08-25T08:42:12.529Z,9.50
2018-08-25T08:44:41.096Z,8.87
2018-08-25T08:47:09.564Z,8.40
2018-08-25T08:49:46.594Z,8.73
2018-08-25T08:52:06.519Z,9.20
2018-08-25T08:54:35.231Z,9.30
2018-08-25T08:57:04.043Z,9.40
2018-08-25T08:59:32.652Z,9.40
2018-08-25T09:02:01.502Z,8.63
2018-08-25T09:04:30.211Z,9.10
2018-08-25T09:06:58.712Z,8.83
2018-08-25T09:09:26.942Z,8.83
2018-08-25T09:11:55.400Z,8.40
2018-08-25T09:14:42.690Z,8.73
2018-08-25T09:17:11.059Z,9.07
2018-08-25T09:19:39.780Z,8.80
2018-08-25T09:22:08.440Z,9.10
2018-08-25T09:24:37.071Z,8.47
2018-08-25T09:27:05.886Z,9.17
2018-08-25T09:29:34.438Z,9.27
2018-08-25T09:32:03.183Z,9.10
2018-08-25T09:34:31.698Z,9.77
2018-08-25T09:37:00.328Z,9.55
2018-08-25T09:39:28.446Z,8.33
2018-08-25T09:41:56.888Z,9.50
2018-08-25T09:44:25.341Z,8.37
2018-08-25T09:46:54.141Z,9.15
2018-08-25T09:49:22.375Z,9.35
2018-08-25T09:51:51.047Z,9.23
2018-08-25T09:54:19.828Z,9.28
2018-08-25T09:56:48.278Z,9.85
2018-08-25T09:59:16.725Z,9.25
2018-08-25T10:01:50.504Z,8.93
2018-08-25T10:04:19.293Z,10.35
2018-08-25T10:06:47.616Z,9.15
2018-08-25T10:09:16.302Z,9.40
2018-08-25T10:11:45.017Z,8.73
2018-08-25T10:14:13.382Z,8.53
2018-08-25T10:16:42.051Z,8.88
2018-08-25T10:19:10.398Z,7.97
2018-08-25T10:21:38.626Z,8.30
2018-08-25T10:24:07.002Z,8.15
2018-08-25T10:26:35.351Z,9.15
2018-08-25T10:29:03.743Z,9.10
2018-08-25T10:31:32.447Z,8.98
2018-08-25T10:34:00.919Z,8.08
2018-08-25T10:36:29.713Z,8.63
2018-08-25T10:38:58.448Z,9.35
2018-08-25T10:41:27.071Z,9.03
2018-08-25T10:43:55.439Z,9.53
2018-08-25T10:46:23.819Z,9.65
2018-08-25T10:48:52.532Z,8.83
2018-08-25T10:51:20.784Z,9.35
2018-08-25T10:53:49.175Z,9.53
2018-08-25T10:56:17.921Z,9.13
2018-08-25T10:58:46.258Z,8.33
2018-08-25T11:01:14.783Z,8.78
2018-08-25T11:03:43.150Z,8.43
2018-08-25T11:06:11.856Z,8.95
2018-08-25T11:08:40.396Z,8.40
2018-08-25T11:11:08.934Z,8.73
2018-08-25T11:13:37.768Z,8.00
2018-08-25T11:16:06.339Z,8.23
2018-08-25T11:18:34.965Z,8.83
2018-08-25T11:21:03.410Z,7.72
2018-08-25T11:23:31.802Z,8.00
2018-08-25T11:26:01.495Z,8.05
2018-08-25T11:28:29.791Z,8.35
2018-08-25T11:30:59.563Z,7.92
2018-08-25T11:33:28.108Z,7.50
2018-08-25T11:35:56.438Z,7.90
2018-08-25T11:38:25.058Z,7.58
2018-08-25T11:40:53.531Z,7.75
2018-08-25T11:43:22.244Z,8.03
2018-08-25T11:45:50.703Z,8.00
2018-08-25T11:48:19.435Z,7.90
2018-08-25T11:50:47.939Z,7.00
2018-08-25T11:53:16.400Z,7.20
2018-08-25T11:55:44.710Z,6.90
2018-08-25T11:58:13.306Z,7.60
2018-08-25T12:00:42.154Z,7.53
2018-08-25T12:03:10.565Z,7.67
2018-08-25T12:05:39.083Z,7.08
2018-08-25T12:08:07.816Z,6.72
2018-08-25T12:10:37.035Z,7.42
2018-08-25T12:13:05.752Z,7.35
2018-08-25T12:16:11.394Z,6.95
2018-08-25T12:18:40.322Z,6.80
2018-08-25T12:21:09.278Z,7.03
2018-08-25T12:23:37.854Z,6.80
2018-08-25T12:26:06.834Z,7.20
2018-08-25T12:28:35.488Z,7.15
2018-08-25T12:31:04.129Z,6.65
2018-08-25T12:33:33.089Z,6.50
2018-08-25T12:36:02.895Z,6.90
2018-08-25T12:38:32.039Z,6.90
2018-08-25T12:41:01.902Z,6.30
2018-08-25T12:43:30.662Z,6.05
2018-08-25T12:46:00.452Z,6.90
2018-08-25T12:48:29.887Z,6.50
2018-08-25T12:50:59.315Z,5.95
2018-08-25T12:53:28.862Z,6.65
2018-08-25T12:55:57.511Z,7.15
2018-08-25T12:58:26.516Z,6.08
2018-08-25T13:00:56.179Z,6.10
2018-08-25T13:03:25.858Z,6.75
2018-08-25T13:05:54.917Z,6.75
2018-08-25T13:08:23.603Z,6.75
2018-08-25T13:10:52.815Z,6.53
2018-08-25T13:13:22.027Z,7.33
2018-08-25T13:16:26.548Z,7.70
2018-08-25T13:18:56.104Z,7.50
2018-08-25T13:21:24.994Z,7.75
2018-08-25T13:23:53.817Z,7.50
2018-08-25T13:26:23.276Z,7.72
2018-08-25T13:28:52.189Z,8.45
2018-08-25T13:31:21.114Z,7.83
2018-08-25T13:33:50.306Z,7.40
2018-08-25T13:36:19.414Z,7.67
2018-08-25T13:38:49.554Z,7.78
2018-08-25T13:41:19.284Z,7.50
2018-08-25T13:43:48.430Z,7.45
2018-08-25T13:46:17.945Z,7.30
2018-08-25T13:48:47.076Z,7.35
2018-08-25T13:51:16.731Z,7.12
2018-08-25T13:53:46.905Z,7.05
2018-08-25T13:56:16.587Z,6.72
2018-08-25T13:58:46.226Z,7.42
2018-08-25T14:01:15.116Z,7.08
2018-08-25T14:03:44.226Z,6.78
2018-08-25T14:06:13.099Z,8.10
2018-08-25T14:08:42.030Z,7.67
2018-08-25T14:11:11.423Z,6.90
2018-08-25T14:13:40.338Z,6.95
2018-08-25T14:16:42.694Z,7.42
2018-08-25T14:19:11.682Z,6.97
2018-08-25T14:21:41.011Z,7.10
2018-08-25T14:24:11.070Z,7.80
2018-08-25T14:26:40.456Z,7.25
2018-08-25T14:29:09.547Z,6.75
2018-08-25T14:31:38.810Z,7.22
2018-08-25T14:34:07.539Z,7.15
2018-08-25T14:36:37.267Z,7.22
2018-08-25T14:39:08.280Z,7.80
2018-08-25T14:41:38.181Z,7.10
2018-08-25T14:44:08.118Z,7.30
2018-08-25T14:46:38.506Z,7.65
2018-08-25T14:49:07.899Z,7.70
2018-08-25T14:51:37.700Z,7.75
2018-08-25T14:54:06.724Z,7.03
2018-08-25T14:56:36.403Z,7.80
2018-08-25T14:59:05.396Z,7.53
2018-08-25T15:01:34.685Z,7.90
2018-08-25T15:04:03.904Z,7.60
2018-08-25T15:06:33.083Z,7.87
2018-08-25T15:09:02.087Z,7.50
2018-08-25T15:11:34.338Z,7.67
2018-08-25T15:14:03.492Z,7.05
2018-08-25T15:16:51.823Z,7.35
2018-08-25T15:19:20.834Z,7.78
2018-08-25T15:21:50.103Z,7.30
2018-08-25T15:24:19.031Z,7.75
2018-08-25T15:26:48.790Z,7.60
2018-08-25T15:29:17.534Z,7.50
2018-08-25T15:31:46.175Z,7.67
2018-08-25T15:34:14.924Z,8.28
2018-08-25T15:36:43.763Z,7.42
2018-08-25T15:39:14.144Z,7.67
2018-08-25T15:41:43.824Z,7.67
2018-08-25T15:44:12.848Z,7.97
2018-08-25T15:46:41.678Z,7.30
2018-08-25T15:49:10.535Z,7.92
2018-08-25T15:51:39.671Z,7.42
2018-08-25T15:54:09.115Z,7.22
2018-08-25T15:56:39.297Z,8.20
2018-08-25T15:59:09.214Z,8.33
2018-08-25T16:01:39.714Z,7.97
2018-08-25T16:04:09.818Z,7.55
2018-08-25T16:06:39.144Z,8.23
2018-08-25T16:09:10.059Z,7.75
2018-08-25T16:11:40.345Z,8.48
2018-08-25T16:14:09.566Z,7.45
2018-08-25T16:17:04.289Z,8.58
2018-08-25T16:19:33.747Z,8.18
2018-08-25T16:22:03.002Z,8.35
2018-08-25T16:24:33.134Z,8.13
2018-08-25T16:27:03.052Z,7.80
2018-08-25T16:29:33.100Z,9.08
2018-08-25T16:32:03.341Z,8.03
2018-08-25T16:34:32.494Z,7.92
2018-08-25T16:37:01.612Z,6.97
2018-08-25T16:39:30.749Z,7.30
2018-08-25T16:42:00.638Z,7.22
2018-08-25T16:44:30.438Z,7.50
2018-08-25T16:47:00.094Z,6.78
2018-08-25T16:49:30.015Z,7.22
2018-08-25T16:51:59.102Z,6.80
2018-08-25T16:54:28.310Z,7.20
2018-08-25T16:56:58.167Z,7.17
2018-08-25T16:59:28.327Z,7.20
2018-08-25T17:01:57.977Z,7.10
2018-08-25T17:04:27.422Z,6.80
2018-08-25T17:06:56.616Z,7.20
2018-08-25T17:09:26.643Z,7.10
2018-08-25T17:11:56.089Z,7.17
2018-08-25T17:14:31.387Z,7.30
2018-08-25T17:17:20.852Z,7.67
2018-08-25T17:19:49.915Z,6.90
2018-08-25T17:22:19.298Z,6.50
2018-08-25T17:24:48.556Z,7.33
2018-08-25T17:27:17.686Z,7.20
2018-08-25T17:29:47.675Z,7.47
2018-08-25T17:32:17.778Z,6.87
2018-08-25T17:34:48.111Z,20.80
2018-08-25T17:37:17.442Z,51.37
2018-08-25T17:39:46.689Z,12.90
2018-08-25T17:42:16.406Z,6.93
2018-08-25T17:44:46.023Z,7.03
2018-08-25T17:47:15.282Z,11.37
2018-08-25T17:49:45.427Z,7.17
2018-08-25T17:52:15.386Z,7.13
2018-08-25T17:54:45.291Z,7.60
2018-08-25T17:57:15.295Z,21.57
2018-08-25T17:59:44.442Z,22.83
2018-08-25T18:02:14.376Z,7.50
2018-08-25T18:04:44.224Z,7.03
2018-08-25T18:07:13.451Z,6.77
2018-08-25T18:09:42.743Z,6.57
2018-08-25T18:12:12.492Z,7.73
2018-08-25T18:17:46.171Z,6.97
2018-08-25T18:20:15.864Z,6.60
2018-08-25T18:22:45.053Z,6.60
2018-08-25T18:25:15.013Z,6.63
2018-08-25T18:27:44.805Z,7.23
2018-08-25T18:30:13.941Z,10.63
2018-08-25T18:32:43.898Z,9.87
2018-08-25T18:35:13.105Z,11.27
2018-08-25T18:37:42.922Z,10.63
2018-08-25T18:40:12.732Z,9.57
2018-08-25T18:42:42.512Z,8.03
2018-08-25T18:45:11.866Z,8.97
2018-08-25T18:47:41.962Z,8.60
2018-08-25T18:50:12.403Z,8.27
2018-08-25T18:52:42.721Z,7.67
2018-08-25T18:55:12.999Z,7.90
2018-08-25T18:57:42.833Z,7.67
2018-08-25T19:00:12.239Z,7.00
2018-08-25T19:02:41.536Z,7.20
2018-08-25T19:05:11.390Z,6.63
2018-08-25T19:07:40.617Z,7.67
2018-08-25T19:10:10.438Z,8.07
2018-08-25T19:12:39.689Z,7.50
2018-08-25T19:15:54.595Z,7.70
2018-08-25T19:18:24.474Z,6.73
2018-08-25T19:20:55.087Z,7.13
2018-08-25T19:23:24.305Z,7.30
2018-08-25T19:25:54.367Z,7.33
2018-08-25T19:28:23.586Z,6.77
2018-08-25T19:30:52.871Z,6.80
2018-08-25T19:33:22.364Z,6.83
2018-08-25T19:35:51.603Z,6.37
2018-08-25T19:38:20.782Z,7.23
2018-08-25T19:40:50.078Z,7.37
2018-08-25T19:43:19.986Z,6.70
2018-08-25T19:45:49.805Z,5.70
2018-08-25T19:48:19.956Z,5.70
2018-08-25T19:50:49.058Z,6.73
2018-08-25T19:53:19.240Z,6.20
2018-08-25T19:55:49.361Z,6.50
2018-08-25T19:58:19.130Z,6.57
2018-08-25T20:00:49.056Z,5.80
2018-08-25T20:03:18.306Z,6.23
2018-08-25T20:05:47.472Z,6.27
2018-08-25T20:08:16.670Z,6.30
2018-08-25T20:10:46.539Z,5.77
2018-08-25T20:13:16.825Z,5.80
2018-08-25T20:16:36.800Z,6.30
2018-08-25T20:19:06.507Z,6.23
2018-08-25T20:21:36.979Z,5.67
2018-08-25T20:24:06.167Z,5.67
2018-08-25T20:29:56.577Z,6.43
2018-08-25T20:32:26.483Z,5.50
2018-08-25T20:34:55.709Z,6.03
2018-08-25T20:37:24.959Z,6.37
2018-08-25T20:39:54.931Z,6.50
2018-08-25T20:42:24.064Z,5.43
2018-08-25T20:44:53.236Z,5.43
2018-08-25T20:47:22.467Z,6.53
2018-08-25T20:49:51.510Z,6.33
2018-08-25T20:52:21.487Z,5.43
2018-08-25T20:54:50.662Z,6.03
2018-08-25T20:57:20.203Z,6.23
2018-08-25T20:59:49.231Z,6.77
2018-08-25T21:02:19.218Z,5.97
2018-08-25T21:04:48.956Z,6.30
2018-08-25T21:07:18.262Z,6.00
2018-08-25T21:09:46.994Z,6.70
2018-08-25T21:12:16.102Z,5.73
2018-08-25T21:15:07.241Z,6.30
2018-08-25T21:17:42.636Z,6.30
2018-08-25T21:20:11.499Z,6.00
2018-08-25T21:22:40.320Z,5.90
2018-08-25T21:25:08.755Z,6.10
2018-08-25T21:27:37.606Z,6.33
2018-08-25T21:30:08.186Z,5.90
2018-08-25T21:32:37.018Z,6.20
2018-08-25T21:35:06.503Z,6.00
2018-08-25T21:37:35.806Z,6.57
2018-08-25T21:40:04.113Z,5.80
2018-08-25T21:42:32.759Z,5.47
2018-08-25T21:45:01.553Z,6.40
2018-08-25T21:47:30.162Z,6.30
2018-08-25T21:49:58.548Z,6.40
2018-08-25T21:52:27.236Z,5.93
2018-08-25T21:54:55.692Z,5.40
2018-08-25T21:57:24.366Z,5.57
2018-08-25T21:59:52.795Z,6.00
2018-08-25T22:02:21.190Z,5.70
2018-08-25T22:04:49.811Z,5.73
2018-08-25T22:07:18.192Z,5.70
2018-08-25T22:09:46.792Z,6.07
2018-08-25T22:12:15.218Z,5.90
2018-08-25T22:14:43.671Z,5.80
2018-08-25T22:17:11.993Z,5.43
2018-08-25T22:19:40.722Z,5.37
2018-08-25T22:22:09.424Z,5.77
2018-08-25T22:24:37.811Z,5.90
2018-08-25T22:27:06.191Z,6.10
2018-08-25T22:29:34.567Z,6.03
2018-08-25T22:32:03.257Z,5.93
2018-08-25T22:34:32.076Z,5.93
2018-08-25T22:37:00.727Z,6.30
2018-08-25T22:39:29.456Z,6.37
2018-08-25T22:41:57.798Z,5.87
2018-08-25T22:44:26.489Z,6.20
2018-08-25T22:46:54.851Z,6.03
2018-08-25T22:49:23.176Z,6.67
2018-08-25T22:51:51.831Z,6.17
2018-08-25T22:54:20.298Z,6.57
2018-08-25T22:56:49.066Z,6.40
2018-08-25T22:59:17.423Z,6.47
2018-08-25T23:01:45.859Z,6.50
2018-08-25T23:04:14.223Z,6.47
2018-08-25T23:06:42.822Z,6.67
2018-08-25T23:09:11.442Z,6.53
2018-08-25T23:11:40.112Z,6.57
2018-08-25T23:14:08.752Z,6.67
2018-08-25T23:16:37.372Z,7.77
2018-08-25T23:19:06.293Z,6.10
2018-08-25T23:21:34.652Z,7.03
2018-08-25T23:24:02.935Z,6.53
2018-08-25T23:26:31.540Z,6.67
2018-08-25T23:29:00.205Z,6.47
2018-08-25T23:31:28.831Z,6.20
2018-08-25T23:33:57.398Z,7.20
2018-08-25T23:36:25.733Z,6.53
2018-08-25T23:38:54.044Z,6.40
2018-08-25T23:41:22.787Z,7.73
2018-08-25T23:43:51.198Z,6.23
2018-08-25T23:46:19.918Z,6.53
2018-08-25T23:48:48.535Z,7.37
2018-08-25T23:51:16.914Z,6.57
2018-08-25T23:53:45.338Z,6.63
2018-08-25T23:56:13.687Z,7.20
2018-08-25T23:58:41.926Z,6.80
